Goldens Bridge, New York
Current Conditions -  °F | °C
As of 3:53 PM on Saturday 25 Oct 2014 (Local Time) from KDXR Reporting Station
Clear Clear  
Wind Chill: 18°   Ceiling: Unl
Heat Index: 18°   Visibility: 10mi
Dew Point:   Wind: 9mph
Humidity: 41%   Direction: 250°WSW
Pressure: 29.68"   Gusts: NA
Location:  41.29°N, 73.68°W
Report Text: KDXR 251953Z 25008KT 10SM CLR 18/04 A2968 RMK AO2 SLP048 T01780044
Loading
Personal Weather Stations






























Interactive Weather Map
Tropical Storm Tracking
New forecast layout! Learn more

10-Day Weather Forecast

Advertisements
Track Severe Weather on mobile